createdAt,value
2023-04-18T00:00:17.892Z,4.80
2023-04-18T00:02:45.761Z,5.93
2023-04-18T00:05:13.587Z,4.75
2023-04-18T00:07:41.477Z,5.40
2023-04-18T00:10:09.123Z,5.47
2023-04-18T00:12:36.626Z,5.60
2023-04-18T00:15:06.168Z,5.53
2023-04-18T00:17:34.234Z,5.25
2023-04-18T00:20:04.968Z,5.20
2023-04-18T00:22:32.459Z,5.00
2023-04-18T00:25:00.488Z,4.80
2023-04-18T00:27:27.846Z,5.40
2023-04-18T00:29:55.107Z,6.50
2023-04-18T00:32:22.490Z,6.15
2023-04-18T00:34:49.936Z,5.13
2023-04-18T00:37:19.796Z,5.32
2023-04-18T00:39:53.940Z,5.53
2023-04-18T00:42:22.337Z,4.80
2023-04-18T00:47:17.749Z,5.88
2023-04-18T00:49:46.459Z,4.50
2023-04-18T00:52:14.272Z,5.35
2023-04-18T00:54:41.828Z,4.97
2023-04-18T00:57:09.699Z,6.35
2023-04-18T00:59:37.419Z,5.70
2023-04-18T01:02:05.712Z,5.50
2023-04-18T01:04:34.512Z,5.20
2023-04-18T01:07:03.390Z,5.20
2023-04-18T01:09:31.075Z,5.03
2023-04-18T01:11:58.379Z,5.57
2023-04-18T01:14:25.753Z,5.43
2023-04-18T01:16:53.437Z,5.27
2023-04-18T01:19:20.967Z,5.85
2023-04-18T01:21:48.232Z,6.00
2023-04-18T01:24:17.857Z,5.47
2023-04-18T01:26:49.816Z,5.60
2023-04-18T01:29:17.163Z,6.38
2023-04-18T01:31:44.537Z,5.27
2023-04-18T01:34:12.143Z,5.72
2023-04-18T01:36:42.356Z,5.05
2023-04-18T01:39:13.565Z,4.80
2023-04-18T01:41:42.394Z,5.70
2023-04-18T01:44:10.702Z,5.38
2023-04-18T01:46:39.037Z,5.63
2023-04-18T01:51:33.951Z,5.32
2023-04-18T01:54:01.332Z,7.13
2023-04-18T01:56:28.580Z,6.05
2023-04-18T01:58:59.773Z,5.72
2023-04-18T02:01:27.388Z,5.90
2023-04-18T02:03:55.015Z,6.10
2023-04-18T02:06:22.518Z,5.43
2023-04-18T02:08:49.777Z,6.15
2023-04-18T02:11:17.069Z,5.28
2023-04-18T02:13:44.793Z,6.03
2023-04-18T02:16:14.045Z,5.90
2023-04-18T02:18:44.236Z,5.90
2023-04-18T02:21:12.131Z,5.78
2023-04-18T02:23:39.522Z,5.78
2023-04-18T02:26:06.797Z,5.20
2023-04-18T02:28:34.416Z,5.53
2023-04-18T02:31:04.107Z,5.75
2023-04-18T02:33:35.387Z,5.75
2023-04-18T02:36:02.723Z,5.43
2023-04-18T02:38:30.242Z,6.10
2023-04-18T02:40:57.869Z,5.60
2023-04-18T02:43:25.351Z,5.68
2023-04-18T02:45:52.830Z,5.80
2023-04-18T02:48:20.987Z,5.25
2023-04-18T02:50:48.312Z,6.88
2023-04-18T02:53:17.221Z,6.10
2023-04-18T02:55:55.867Z,5.57
2023-04-18T02:58:30.088Z,5.72
2023-04-18T03:01:20.303Z,5.85
2023-04-18T03:03:58.594Z,6.30
2023-04-18T03:06:48.025Z,5.13
2023-04-18T03:09:16.941Z,5.53
2023-04-18T03:11:49.497Z,6.00
2023-04-18T03:14:20.660Z,5.53
2023-04-18T03:16:55.427Z,7.07
2023-04-18T03:19:27.363Z,5.85
2023-04-18T03:21:56.939Z,5.65
2023-04-18T03:24:24.284Z,7.50
2023-04-18T03:26:54.306Z,9.20
2023-04-18T03:29:25.076Z,8.70
2023-04-18T03:31:52.562Z,8.50
2023-04-18T03:34:19.851Z,8.07
2023-04-18T03:36:48.211Z,8.23
2023-04-18T03:39:16.937Z,9.77
2023-04-18T03:41:45.058Z,10.57
2023-04-18T03:44:13.387Z,7.60
2023-04-18T03:46:42.143Z,8.23
2023-04-18T03:49:11.328Z,10.65
2023-04-18T03:51:49.970Z,8.95
2023-04-18T03:54:18.604Z,9.75
2023-04-18T03:56:46.422Z,11.30
2023-04-18T03:59:15.562Z,10.98
2023-04-18T04:01:46.760Z,8.93
2023-04-18T04:04:15.804Z,8.03
2023-04-18T04:06:43.921Z,7.57
2023-04-18T04:09:11.242Z,8.45
2023-04-18T04:11:39.756Z,7.78
2023-04-18T04:14:09.702Z,7.65
2023-04-18T04:16:41.849Z,7.75
2023-04-18T04:19:11.583Z,7.97
2023-04-18T04:21:45.538Z,8.45
2023-04-18T04:24:16.418Z,8.60
2023-04-18T04:26:48.841Z,7.57
2023-04-18T04:29:21.644Z,7.38
2023-04-18T04:31:49.617Z,6.22
2023-04-18T04:34:31.106Z,7.80
2023-04-18T04:37:00.900Z,9.88
2023-04-18T04:39:29.693Z,8.35
2023-04-18T04:42:33.793Z,7.50
2023-04-18T04:45:09.762Z,9.60
2023-04-18T04:47:37.314Z,8.68
2023-04-18T04:50:07.561Z,8.27
2023-04-18T04:52:34.870Z,8.63
2023-04-18T04:55:03.581Z,9.38
2023-04-18T04:57:32.031Z,11.15
2023-04-18T04:59:59.421Z,9.40
2023-04-18T05:02:27.802Z,8.25
2023-04-18T05:04:55.519Z,8.00
2023-04-18T05:07:22.849Z,8.30
2023-04-18T05:09:50.096Z,9.20
2023-04-18T05:12:17.286Z,7.65
2023-04-18T05:14:44.559Z,8.02
2023-04-18T05:17:11.807Z,8.20
2023-04-18T05:19:39.578Z,7.80
2023-04-18T05:22:06.809Z,7.70
2023-04-18T05:24:34.161Z,6.93
2023-04-18T05:27:01.748Z,7.15
2023-04-18T05:29:29.035Z,7.40
2023-04-18T05:31:56.218Z,7.30
2023-04-18T05:34:23.529Z,6.88
2023-04-18T05:36:50.826Z,7.97
2023-04-18T05:39:17.995Z,7.80
2023-04-18T05:41:45.233Z,8.43
2023-04-18T05:44:12.518Z,9.10
2023-04-18T05:46:39.916Z,7.93
2023-04-18T05:49:07.291Z,7.45
2023-04-18T05:51:34.652Z,6.40
2023-04-18T05:54:01.972Z,7.37
2023-04-18T05:56:29.684Z,6.97
2023-04-18T05:58:56.986Z,8.13
2023-04-18T06:01:24.196Z,7.18
2023-04-18T06:03:51.661Z,7.70
2023-04-18T06:06:19.193Z,7.05
2023-04-18T06:08:46.408Z,8.00
2023-04-18T06:11:15.431Z,8.75
2023-04-18T06:13:43.148Z,7.97
2023-04-18T06:16:10.484Z,7.80
2023-04-18T06:18:38.006Z,7.47
2023-04-18T06:21:05.538Z,6.85
2023-04-18T06:23:32.884Z,7.93
2023-04-18T06:26:00.150Z,7.25
2023-04-18T06:28:27.445Z,7.60
2023-04-18T06:30:54.707Z,7.88
2023-04-18T06:33:22.048Z,8.90
2023-04-18T06:35:49.318Z,8.67
2023-04-18T06:38:16.683Z,6.33
2023-04-18T06:40:43.930Z,6.65
2023-04-18T06:43:11.258Z,6.53
2023-04-18T06:45:40.387Z,5.63
2023-04-18T06:48:09.194Z,6.40
2023-04-18T06:50:36.723Z,6.97
2023-04-18T06:53:03.957Z,5.50
2023-04-18T06:55:31.435Z,6.57
2023-04-18T06:58:00.516Z,5.72
2023-04-18T07:00:27.788Z,5.32
2023-04-18T07:02:55.147Z,6.93
2023-04-18T07:05:22.504Z,6.25
2023-04-18T07:07:49.738Z,6.80
2023-04-18T07:10:16.907Z,7.10
2023-04-18T07:12:44.122Z,5.38
2023-04-18T07:15:11.595Z,4.70
2023-04-18T07:17:38.881Z,5.35
2023-04-18T07:20:07.185Z,4.10
2023-04-18T07:22:34.315Z,4.70
2023-04-18T07:25:01.543Z,5.18
2023-04-18T07:27:31.326Z,5.00
2023-04-18T07:29:58.652Z,4.43
2023-04-18T07:32:26.093Z,4.90
2023-04-18T07:34:53.983Z,4.53
2023-04-18T07:37:21.606Z,4.43
2023-04-18T07:39:49.162Z,4.15
2023-04-18T07:42:16.442Z,4.05
2023-04-18T07:44:44.650Z,5.30
2023-04-18T07:49:39.590Z,4.47
2023-04-18T07:52:07.508Z,4.77
2023-04-18T07:54:34.820Z,4.60
2023-04-18T07:57:02.066Z,3.95
2023-04-18T07:59:29.832Z,3.90
2023-04-18T08:01:57.044Z,4.10
2023-04-18T08:04:25.821Z,4.37
2023-04-18T08:06:57.351Z,4.70
2023-04-18T08:09:25.315Z,4.43
2023-04-18T08:11:52.580Z,4.97
2023-04-18T08:14:19.872Z,5.87
2023-04-18T08:16:47.127Z,5.68
2023-04-18T08:19:14.617Z,4.70
2023-04-18T08:21:41.920Z,5.38
2023-04-18T08:24:09.190Z,5.30
2023-04-18T08:26:36.396Z,5.28
2023-04-18T08:29:03.622Z,4.70
2023-04-18T08:31:31.848Z,5.35
2023-04-18T08:33:59.084Z,4.53
2023-04-18T08:36:26.874Z,5.22
2023-04-18T08:38:54.134Z,4.60
2023-04-18T08:41:26.627Z,4.43
2023-04-18T08:43:55.235Z,4.22
2023-04-18T08:46:24.219Z,5.18
2023-04-18T08:48:51.522Z,4.30
2023-04-18T08:51:18.942Z,5.22
2023-04-18T08:53:48.464Z,4.20
2023-04-18T08:56:16.417Z,5.13
2023-04-18T08:58:45.231Z,4.80
2023-04-18T09:01:13.715Z,4.90
2023-04-18T09:03:43.316Z,4.93
2023-04-18T09:06:18.983Z,4.70
2023-04-18T09:08:59.306Z,4.60
2023-04-18T09:11:29.880Z,13.32
2023-04-18T09:13:59.057Z,6.50
2023-04-18T09:16:28.054Z,5.57
2023-04-18T09:19:13.858Z,5.70
2023-04-18T09:21:46.367Z,4.28
2023-04-18T09:24:22.666Z,4.72
2023-04-18T09:26:51.437Z,5.18
2023-04-18T09:29:22.495Z,4.25
2023-04-18T09:32:01.498Z,4.53
2023-04-18T09:34:29.732Z,4.93
2023-04-18T09:37:11.830Z,5.13
2023-04-18T09:39:42.309Z,4.72
2023-04-18T09:42:11.247Z,4.72
2023-04-18T09:44:39.636Z,4.20
2023-04-18T09:47:08.037Z,4.78
2023-04-18T09:49:35.496Z,4.18
2023-04-18T09:52:07.308Z,4.35
2023-04-18T09:54:38.525Z,3.88
2023-04-18T09:57:11.162Z,3.60
2023-04-18T09:59:55.134Z,4.68
2023-04-18T10:02:24.655Z,4.13
2023-04-18T10:04:54.376Z,4.65
2023-04-18T10:07:23.382Z,4.38
2023-04-18T10:09:53.433Z,4.88
2023-04-18T10:12:21.181Z,5.68
2023-04-18T10:14:48.805Z,4.28
2023-04-18T10:17:16.322Z,3.97
2023-04-18T10:19:46.041Z,5.32
2023-04-18T10:22:13.554Z,4.50
2023-04-18T10:24:56.256Z,4.30
2023-04-18T10:27:48.578Z,4.10
2023-04-18T10:30:17.223Z,4.25
2023-04-18T10:32:47.517Z,4.85
2023-04-18T10:35:14.845Z,4.90
2023-04-18T10:37:52.186Z,7.27
2023-04-18T10:40:34.287Z,6.80
2023-04-18T10:43:01.962Z,6.82
2023-04-18T10:45:32.661Z,5.97
2023-04-18T10:48:27.636Z,6.07
2023-04-18T10:51:21.055Z,6.75
2023-04-18T10:53:59.738Z,8.27
2023-04-18T10:56:28.320Z,7.43
2023-04-18T10:58:59.390Z,8.00
2023-04-18T11:01:32.130Z,8.77
2023-04-18T11:04:01.294Z,8.10
2023-04-18T11:06:29.120Z,7.40
2023-04-18T11:09:13.781Z,7.40
2023-04-18T11:11:42.158Z,6.50
2023-04-18T11:14:09.560Z,7.30
2023-04-18T11:16:36.989Z,7.85
2023-04-18T11:19:25.848Z,7.68
2023-04-18T11:21:53.096Z,7.30
2023-04-18T11:24:26.434Z,7.73
2023-04-18T11:26:56.188Z,6.90
2023-04-18T11:29:24.010Z,7.90
2023-04-18T11:31:55.991Z,8.20
2023-04-18T11:34:31.900Z,7.18
2023-04-18T11:36:59.613Z,7.28
2023-04-18T11:39:26.917Z,6.78
2023-04-18T11:41:56.530Z,6.43
2023-04-18T11:44:25.897Z,7.05
2023-04-18T11:46:54.178Z,6.07
2023-04-18T11:51:56.438Z,6.45
2023-04-18T11:54:44.934Z,6.93
2023-04-18T11:57:23.911Z,6.07
2023-04-18T11:59:53.192Z,6.60
2023-04-18T12:02:22.656Z,8.07
2023-04-18T12:04:59.531Z,6.93
2023-04-18T12:07:37.484Z,6.32
2023-04-18T12:10:23.517Z,7.27
2023-04-18T12:12:59.743Z,6.60
2023-04-18T12:15:29.840Z,6.63
2023-04-18T12:18:03.890Z,7.03
2023-04-18T12:20:50.275Z,6.13
2023-04-18T12:23:41.979Z,7.20
2023-04-18T12:26:15.387Z,6.93
2023-04-18T12:28:46.596Z,6.50
2023-04-18T12:31:13.873Z,6.43
2023-04-18T12:33:41.196Z,7.10
2023-04-18T12:36:10.015Z,7.57
2023-04-18T12:38:37.392Z,6.28
2023-04-18T12:41:05.567Z,6.63
2023-04-18T12:46:00.208Z,6.78
2023-04-18T12:48:27.496Z,6.72
2023-04-18T12:50:54.938Z,6.87
2023-04-18T12:53:22.131Z,6.47
2023-04-18T12:55:49.426Z,6.80
2023-04-18T12:58:18.811Z,6.15
2023-04-18T13:00:46.523Z,6.32
2023-04-18T13:03:14.011Z,5.93
2023-04-18T13:05:41.626Z,6.47
2023-04-18T13:08:17.045Z,6.40
2023-04-18T13:10:47.760Z,6.50
2023-04-18T13:13:15.381Z,6.97
2023-04-18T13:15:42.799Z,7.10
2023-04-18T13:18:10.260Z,7.70
2023-04-18T13:20:37.686Z,7.22
2023-04-18T13:23:05.296Z,5.75
2023-04-18T13:25:32.631Z,6.10
2023-04-18T13:28:01.055Z,5.28
2023-04-18T13:30:29.174Z,5.30
2023-04-18T13:32:56.927Z,5.47
2023-04-18T13:35:24.876Z,5.47
2023-04-18T13:37:52.326Z,6.10
2023-04-18T13:40:19.887Z,7.07
2023-04-18T13:42:47.058Z,6.78
2023-04-18T13:45:14.265Z,5.90
2023-04-18T13:47:41.595Z,6.37
2023-04-18T13:50:09.645Z,6.23
2023-04-18T13:55:04.200Z,5.35
2023-04-18T13:57:33.724Z,5.82
2023-04-18T14:00:01.357Z,5.75
2023-04-18T14:02:41.603Z,5.80
2023-04-18T14:05:09.598Z,5.00
2023-04-18T14:07:38.451Z,4.93
2023-04-18T14:10:07.130Z,4.85
2023-04-18T14:12:34.779Z,4.20
2023-04-18T14:15:02.078Z,6.93
2023-04-18T14:17:32.665Z,5.10
2023-04-18T14:20:00.482Z,4.87
2023-04-18T14:22:27.714Z,5.30
2023-04-18T14:24:56.261Z,5.65
2023-04-18T14:27:25.557Z,6.13
2023-04-18T14:29:52.856Z,5.75
2023-04-18T14:32:20.235Z,5.80
2023-04-18T14:34:48.183Z,6.38
2023-04-18T14:37:15.777Z,6.50
2023-04-18T14:39:44.554Z,6.07
2023-04-18T14:42:11.865Z,4.63
2023-04-18T14:44:39.139Z,5.38
2023-04-18T14:47:06.567Z,4.83
2023-04-18T14:49:34.400Z,5.70
2023-04-18T14:52:01.686Z,5.47
2023-04-18T14:54:30.482Z,5.70
2023-04-18T14:56:59.620Z,9.10
2023-04-18T14:59:28.890Z,6.53
2023-04-18T15:01:56.517Z,7.95
2023-04-18T15:04:24.358Z,7.20
2023-04-18T15:06:51.984Z,7.28
2023-04-18T15:09:19.396Z,6.90
2023-04-18T15:11:46.990Z,8.30
2023-04-18T15:14:14.577Z,17.42
2023-04-18T15:16:41.984Z,11.15
2023-04-18T15:19:09.327Z,7.28
2023-04-18T15:21:36.693Z,8.20
2023-04-18T15:24:04.191Z,9.52
2023-04-18T15:26:33.143Z,8.40
2023-04-18T15:29:05.445Z,5.75
2023-04-18T15:31:32.949Z,5.53
2023-04-18T15:34:00.525Z,6.97
2023-04-18T15:36:28.268Z,6.68
2023-04-18T15:38:55.691Z,5.30
2023-04-18T15:41:23.420Z,5.53
2023-04-18T15:43:53.082Z,5.05
2023-04-18T15:59:07.485Z,3.80
2023-04-18T16:01:35.934Z,4.22
2023-04-18T16:04:03.538Z,4.25
2023-04-18T16:06:31.551Z,4.80
2023-04-18T16:08:58.908Z,4.20
2023-04-18T16:11:26.581Z,3.72
2023-04-18T16:13:56.348Z,4.13
2023-04-18T16:16:23.903Z,4.28
2023-04-18T16:18:51.335Z,4.53
2023-04-18T16:21:18.681Z,3.60
2023-04-18T16:23:46.142Z,4.27
2023-04-18T16:26:13.556Z,5.00
2023-04-18T16:28:42.259Z,4.53
2023-04-18T16:31:09.658Z,5.60
2023-04-18T16:33:37.140Z,5.00
2023-04-18T16:36:05.374Z,6.13
2023-04-18T16:38:33.306Z,5.07
2023-04-18T16:41:03.863Z,4.85
2023-04-18T16:43:31.327Z,4.85
2023-04-18T16:46:00.427Z,4.63
2023-04-18T16:48:29.159Z,4.80
2023-04-18T16:50:57.268Z,4.65
2023-04-18T16:53:25.282Z,4.43
2023-04-18T16:55:53.385Z,4.88
2023-04-18T17:00:49.162Z,4.45
2023-04-18T17:03:16.780Z,5.43
2023-04-18T17:05:44.761Z,5.07
2023-04-18T17:08:12.135Z,5.07
2023-04-18T17:10:39.493Z,5.30
2023-04-18T17:13:06.769Z,5.13
2023-04-18T17:15:34.366Z,5.85
2023-04-18T17:18:02.707Z,5.22
2023-04-18T17:20:30.009Z,5.38
2023-04-18T17:22:57.520Z,5.90
2023-04-18T17:25:24.890Z,5.35
2023-04-18T17:27:52.162Z,5.75
2023-04-18T17:30:19.602Z,6.27
2023-04-18T17:32:47.085Z,6.17
2023-04-18T17:35:14.997Z,5.13
2023-04-18T17:37:45.124Z,5.00
2023-04-18T17:40:13.297Z,4.93
2023-04-18T17:45:09.685Z,5.30
2023-04-18T17:47:37.137Z,5.03
2023-04-18T17:50:05.176Z,5.00
2023-04-18T17:55:04.153Z,5.75
2023-04-18T17:57:33.772Z,5.63
2023-04-18T18:00:01.801Z,6.15
2023-04-18T18:02:42.390Z,5.60
2023-04-18T18:05:14.385Z,5.70
2023-04-18T18:07:46.014Z,5.13
2023-04-18T18:10:23.387Z,5.30
2023-04-18T18:12:51.094Z,5.72
2023-04-18T18:15:19.164Z,5.13
2023-04-18T18:17:49.963Z,5.40
2023-04-18T18:20:18.178Z,5.40
2023-04-18T18:25:13.411Z,5.38
2023-04-18T18:27:41.057Z,5.97
2023-04-18T18:30:09.161Z,5.50
2023-04-18T18:32:36.575Z,5.13
2023-04-18T18:35:06.000Z,5.20
2023-04-18T18:37:33.773Z,5.10
2023-04-18T18:40:05.105Z,4.37
2023-04-18T18:42:32.608Z,4.55
2023-04-18T18:45:01.681Z,4.60
2023-04-18T18:47:32.348Z,4.45
2023-04-18T18:49:59.820Z,4.10
2023-04-18T18:52:29.880Z,3.97
2023-04-18T18:54:57.347Z,4.30
2023-04-18T18:57:25.206Z,4.50
2023-04-18T18:59:53.881Z,4.90
2023-04-18T19:02:23.410Z,4.20
2023-04-18T19:04:50.958Z,4.00
2023-04-18T19:07:18.375Z,4.43
2023-04-18T19:09:46.551Z,4.18
2023-04-18T19:12:15.170Z,5.43
2023-04-18T19:14:42.564Z,4.57
2023-04-18T19:17:09.968Z,4.40
2023-04-18T19:19:37.323Z,4.37
2023-04-18T19:22:06.088Z,5.30
2023-04-18T19:24:35.089Z,5.00
2023-04-18T19:27:03.122Z,4.78
2023-04-18T19:29:32.798Z,4.95
2023-04-18T19:32:00.437Z,4.60
2023-04-18T19:34:28.107Z,4.65
2023-04-18T19:36:55.420Z,5.22
2023-04-18T19:39:22.837Z,4.60
2023-04-18T19:41:50.156Z,5.53
2023-04-18T19:44:17.583Z,4.77
2023-04-18T19:46:44.858Z,4.37
2023-04-18T19:49:12.250Z,4.40
2023-04-18T19:51:40.466Z,5.57
2023-04-18T19:54:07.722Z,4.93
2023-04-18T19:56:35.434Z,4.90
2023-04-18T19:59:04.872Z,5.10
2023-04-18T20:01:32.342Z,5.13
2023-04-18T20:04:00.683Z,4.93
2023-04-18T20:06:28.734Z,5.43
2023-04-18T20:08:55.935Z,5.70
2023-04-18T20:11:23.168Z,6.07
2023-04-18T20:13:52.370Z,5.32
2023-04-18T20:16:19.698Z,5.93
2023-04-18T20:18:47.550Z,5.78
2023-04-18T20:21:15.052Z,5.80
2023-04-18T20:23:42.875Z,5.70
2023-04-18T20:26:10.166Z,5.85
2023-04-18T20:28:38.017Z,5.43
2023-04-18T20:31:05.418Z,4.72
2023-04-18T20:33:33.210Z,4.95
2023-04-18T20:36:00.472Z,4.80
2023-04-18T20:38:29.839Z,5.40
2023-04-18T20:40:58.952Z,4.68
2023-04-18T20:43:27.036Z,5.30
2023-04-18T20:45:54.652Z,4.93
2023-04-18T20:48:22.097Z,5.40
2023-04-18T20:50:52.209Z,4.40
2023-04-18T20:53:21.183Z,4.55
2023-04-18T20:55:49.121Z,4.20
2023-04-18T20:58:16.953Z,4.43
2023-04-18T21:00:45.063Z,4.25
2023-04-18T21:03:16.672Z,4.07
2023-04-18T21:05:45.245Z,3.70
2023-04-18T21:08:12.792Z,3.45
2023-04-18T21:10:40.207Z,3.92
2023-04-18T21:13:09.353Z,3.83
2023-04-18T21:15:36.800Z,3.65
2023-04-18T21:18:04.246Z,3.87
2023-04-18T21:20:31.850Z,3.53
2023-04-18T21:22:59.168Z,3.65
2023-04-18T21:25:26.493Z,3.47
2023-04-18T21:27:53.936Z,4.97
2023-04-18T21:30:21.841Z,4.00
2023-04-18T21:32:51.559Z,4.25
2023-04-18T21:35:20.739Z,4.10
2023-04-18T21:37:48.706Z,3.97
2023-04-18T21:40:16.240Z,3.80
2023-04-18T21:42:44.649Z,4.20
2023-04-18T21:45:12.211Z,3.75
2023-04-18T21:47:39.678Z,4.10
2023-04-18T21:50:08.100Z,4.07
2023-04-18T21:55:02.702Z,4.10
2023-04-18T21:57:33.039Z,3.50
2023-04-18T22:00:00.288Z,3.92
2023-04-18T22:02:28.187Z,4.30
2023-04-18T22:04:55.568Z,4.40
2023-04-18T22:07:24.703Z,4.18
2023-04-18T22:09:52.118Z,4.65
2023-04-18T22:12:19.352Z,4.57
2023-04-18T22:14:48.586Z,5.53
2023-04-18T22:17:16.210Z,4.43
2023-04-18T22:19:44.623Z,4.25
2023-04-18T22:22:12.497Z,5.40
2023-04-18T22:24:39.968Z,5.47
2023-04-18T22:27:07.433Z,4.73
2023-04-18T22:29:34.896Z,4.83
2023-04-18T22:32:02.171Z,4.05
2023-04-18T22:34:29.827Z,4.38
2023-04-18T22:36:57.085Z,4.78
2023-04-18T22:39:25.036Z,4.22
2023-04-18T22:41:52.346Z,3.85
2023-04-18T22:44:19.714Z,4.80
2023-04-18T22:46:48.323Z,4.60
2023-04-18T22:49:15.792Z,4.60
2023-04-18T22:51:44.120Z,5.10
2023-04-18T22:54:11.468Z,5.13
2023-04-18T22:56:38.771Z,4.72
2023-04-18T22:59:06.004Z,4.70
2023-04-18T23:01:33.368Z,5.13
2023-04-18T23:04:00.962Z,4.63
2023-04-18T23:06:30.111Z,4.82
2023-04-18T23:08:57.401Z,4.70
2023-04-18T23:11:26.419Z,4.70
2023-04-18T23:13:53.677Z,4.63
2023-04-18T23:16:21.211Z,4.18
2023-04-18T23:18:48.518Z,4.35
2023-04-18T23:21:17.608Z,4.33
2023-04-18T23:23:45.006Z,4.07
2023-04-18T23:26:16.180Z,4.43
2023-04-18T23:28:43.847Z,4.30
2023-04-18T23:31:11.857Z,3.92
2023-04-18T23:33:39.204Z,4.00
2023-04-18T23:36:07.181Z,4.13
2023-04-18T23:38:37.335Z,4.22
2023-04-18T23:41:04.805Z,4.75
2023-04-18T23:43:32.110Z,4.85
2023-04-18T23:45:59.455Z,4.03
2023-04-18T23:48:26.948Z,4.37
2023-04-18T23:50:54.526Z,4.07
2023-04-18T23:53:22.920Z,4.10
2023-04-18T23:55:51.118Z,4.68
2023-04-18T23:58:18.643Z,3.83
